Hlavní strana
METAR-TAF:

METAR-TAF

Letiště :

Sinop, Turecko

zeměpisná šířka: 42-00-57N, zeměpisná délka: 035-03-59E, výška: 7 m

Aktuální stav počasí

Zpráva byla vytvořena před 35 minutami, v 10:50 UTC
Západoseverozápadní vítr 12 kt, proměnlivý mezi západním a severozápadním
Teplota 20°C
Vlhkost vzduchu 68%
Tlak 1013 hPa
Viditelnost 10 km a více
Skoro jasno ve výšce 3300 ft
Oblačno až skoro zataženo ve výšce 10000 ft

METAR: LTCM 041050Z 29012KT 260V320 9999 FEW033 BKN100 20/14 Q1013

Čas: 14:25 (11:25 UTC)

Předpověď počasí

Zpráva byla vytvořena před 3 hodinami a 45 minutami, v 07:40 UTC
Předpověď platná od 04 v 09 UTC do 04 v 18 UTC
Severozápadní vítr 9 kt
Viditelnost 10 km a více
Polojasno ve výšce 3300 ft
Oblačno až skoro zataženo ve výšce 10000 ft
Dočasný
od 04 v 11 UTC do 04 v 15 UTC
Oblačno až skoro zataženo ve výšce 2700 ft
Oblačno až skoro zataženo ve výšce 9000 ft
slabé dešťové přeháňky

TAF: LTCM 040740Z 0409/0418 32009KT 9999 SCT033 BKN100 TEMPO 0411/0415 -SHRA BKN027 BKN090

Stav a předpovědi počasí z více než 4 000 letišť (zprávy METAR a TAF).

Červené a žluté tečky na mapě představují dostupné meteorologické stanice.

Když kurzor umístíte na tečku, zobrazí se název stanice.

Pak kliknutím zobrazíte stav a předpověď počasí.

Chcete-li změnit mapu, kliknutím na zelené tlačítko se znaménkem +mapu přiblížíte, kliknutím na zelené tlačítko se znaménkem – mapu oddálíte a kliknutím na zelené šipky přejdete na sousední mapy.


METAR-TAF: